Buoy 13516

sailwx.info

Track history (hours):
 
Tides and Currents Weather Stations Pressure Air Temp Water Temp Dewpoint Dewpoint Depression Visibility Wind Speed Wind Dir Waves Ship Positions

Ao Chao Yang 13516

Last reported at 2015-Aug-02 04:35 UTC. Time now 2015-Aug-02 06:17 UTC.
Position N 24°32' W 045°56'.

Length 20 m.

Type: Fishing. MMSI: 412469022.

Water temperature 27.2 ° C

Date/timePositionNaut miles runAvg speedWind from/ knotsBaromVisibWave heightAir tempDewpointWater temp
2015-Aug-02 04:35N 24°32' W 045°56'1 7.3 27.2
2015-Aug-02 04:29N 24°32' W 045°57'2 0.5 27.2
2015-Aug-02 01:26N 24°31' W 045°55'0 5.1 27.3
2015-Aug-02 01:21N 24°31' W 045°55'0 0.4 27.3
2015-Aug-02 00:39N 24°31' W 045°54'0 0.0
2015-Aug-01 23:47N 24°31' W 045°54'0 0.5 27.3
2015-Aug-01 22:59N 24°31' W 045°54'0 0.0 27.3
2015-Aug-01 22:53N 24°31' W 045°54'2 1.8 27.4
2015-Aug-01 21:48N 24°31' W 045°52'1 1.4 27.4
2015-Aug-01 21:09N 24°31' W 045°53'1 1.3 27.4
2015-Aug-01 20:32N 24°31' W 045°52'1 2.6 27.4
2015-Aug-01 20:09N 24°30' W 045°51'0 0.0 27.4
2015-Aug-01 19:29N 24°30' W 045°51'1 1.2 27.4
2015-Aug-01 18:50N 24°31' W 045°51'0 0.0 27.4
2015-Aug-01 18:24N 24°31' W 045°51'0 0.4 27.4
2015-Aug-01 17:45N 24°31' W 045°51'0 3.6 27.4
2015-Aug-01 17:42N 24°31' W 045°51'0 0.0 27.4
2015-Aug-01 16:05N 24°31' W 045°51'1 0.3 27.4
2015-Aug-01 14:09N 24°31' W 045°50'0 0.2 27.2
2015-Aug-01 13:20N 24°31' W 045°50'1 0.1 27.2
2015-Aug-01 09:15N 24°31' W 045°49'0 2.4 27.0
2015-Aug-01 09:12N 24°31' W 045°49'0 0.2 27.0
2015-Aug-01 07:09N 24°31' W 045°49'1 0.2 27.0
2015-Aug-01 01:45N 24°30' W 045°49'0 0.5 27.2
2015-Aug-01 01:00N 24°30' W 045°49'0 3.8 27.2
2015-Aug-01 00:54N 24°29' W 045°49'1 0.4 27.2
2015-Jul-31 21:57N 24°28' W 045°48'0 0.0 27.2
2015-Jul-31 21:45N 24°28' W 045°48'1 1.5 27.2
2015-Jul-31 20:54N 24°28' W 045°46'0 0.5 27.3
2015-Jul-31 20:03N 24°28' W 045°47'0 2.4 27.3
2015-Jul-31 19:57N 24°28' W 045°47'0 0.0 27.3
2015-Jul-31 19:17N 24°28' W 045°47'1 0.6 27.3
2015-Jul-31 17:54N 24°28' W 045°46'1 0.4 27.3
2015-Jul-31 16:09N 24°27' W 045°45'1 0.2 27.3
2015-Jul-31 12:05N 24°27' W 045°44'0 5.1 27.1
2015-Jul-31 12:00N 24°27' W 045°45'111.0 27.1
2015-Jul-31 11:57N 24°28' W 045°44'0 0.0 27.1
2015-Jul-31 11:09N 24°28' W 045°44'0 0.2 27.1
2015-Jul-31 09:24N 24°27' W 045°44'0 0.7 27.1
2015-Jul-31 09:00N 24°27' W 045°44'0 1.7 27.1
2015-Jul-31 08:53N 24°27' W 045°44'0 0.2 27.1
2015-Jul-31 07:57N 24°27' W 045°43'0 0.6 27.1
2015-Jul-31 07:14N 24°27' W 045°43'1 0.1 27.2
2015-Jul-31 02:03N 24°26' W 045°43'1 0.2 27.2
2015-Jul-30 22:45N 24°26' W 045°43'2 0.5 27.3
2015-Jul-30 18:08N 24°24' W 045°41'1 0.4 27.4
2015-Jul-30 14:48N 24°24' W 045°39'0 0.0 27.3
2015-Jul-30 14:08N 24°24' W 045°39'0 0.0 27.2
2015-Jul-30 14:05N 24°24' W 045°39'1 0.4 27.2
2015-Jul-30 12:17N 24°23' W 045°39'1 0.3 27.1
2015-Jul-30 10:08N 24°24' W 045°38'0 0.3 27.1
2015-Jul-30 09:09N 24°23' W 045°38'0 4.4 27.0
2015-Jul-30 09:06N 24°23' W 045°38'1 0.2 27.0
2015-Jul-30 05:05N 24°23' W 045°37'1 7.0 27.2
2015-Jul-30 04:59N 24°22' W 045°37'0 0.0 27.2
2015-Jul-30 00:47N 24°22' W 045°37'0 0.1 27.2
2015-Jul-29 23:59N 24°22' W 045°37'0 3.0 27.3
2015-Jul-29 23:53N 24°22' W 045°36'0 0.3 27.3
2015-Jul-29 23:03N 24°22' W 045°36'1 0.3 27.3
2015-Jul-29 20:02N 24°21' W 045°35'1 0.6 27.4
2015-Jul-29 19:05N 24°21' W 045°35'3 0.2 27.5
2015-Jul-29 07:09N 24°20' W 045°32'0 0.0 27.0
2015-Jul-29 07:06N 24°20' W 045°32'0 0.0 27.0
2015-Jul-29 07:00N 24°20' W 045°32'0 0.0 27.0
2015-Jul-29 05:17N 24°20' W 045°32'1 0.4 27.0
2015-Jul-29 01:54N 24°19' W 045°31'1 1.4 27.1
2015-Jul-29 01:03N 24°19' W 045°30'0 0.1 27.2
2015-Jul-28 20:54N 24°19' W 045°30'1 0.6 27.4
2015-Jul-28 19:51N 24°19' W 045°30'3 0.6 27.5
2015-Jul-28 15:06N 24°16' W 045°27'0 0.0 27.3
2015-Jul-28 13:54N 24°16' W 045°27'1 0.4 27.1
2015-Jul-28 12:09N 24°17' W 045°27'0 6.0 26.9
2015-Jul-28 12:05N 24°17' W 045°26'1 0.4 26.9
2015-Jul-28 09:15N 24°17' W 045°25'0 0.4 26.9
2015-Jul-28 07:54N 24°17' W 045°25'0 4.9 27.0
2015-Jul-28 07:50N 24°17' W 045°24'0 0.6 27.0
2015-Jul-28 07:09N 24°18' W 045°24'2 0.3 27.0
2015-Jul-28 00:44N 24°18' W 045°23'0 0.2 27.2
2015-Jul-27 23:50N 24°18' W 045°23'0 0.0 27.2
2015-Jul-27 23:47N 24°18' W 045°23'0 0.4 27.2
2015-Jul-27 23:02N 24°18' W 045°22'0 1.2 27.2
2015-Jul-27 22:54N 24°18' W 045°22'0 0.1 27.2
2015-Jul-27 21:06N 24°18' W 045°22'0 0.4 27.3
2015-Jul-27 20:54N 24°18' W 045°22'1 0.2 27.3
2015-Jul-27 17:02N 24°18' W 045°21'1 0.3 27.3
2015-Jul-27 11:48N 24°17' W 045°20'2 0.5 26.9
2015-Jul-27 07:59N 24°18' W 045°18'1 0.3 26.9
2015-Jul-27 03:59N 24°17' W 045°17'0 0.0 26.9
2015-Jul-27 01:45N 24°17' W 045°17'0 0.4 27.0
2015-Jul-27 00:59N 24°17' W 045°17'0 0.0 27.0
2015-Jul-27 00:09N 24°17' W 045°17'0 0.6 27.0
2015-Jul-26 23:23N 24°17' W 045°16'0 0.5 27.0
2015-Jul-26 22:26N 24°17' W 045°16'0 0.0 27.1
2015-Jul-26 21:20N 24°17' W 045°16'0 5.4 27.2
2015-Jul-26 21:18N 24°17' W 045°16'0 0.0 27.2
2015-Jul-26 21:03N 24°17' W 045°16'0 0.4 27.2
2015-Jul-26 20:50N 24°17' W 045°16'1 0.5
2015-Jul-26 19:39N 24°17' W 045°15'0 0.2 27.2
2015-Jul-26 18:48N 24°17' W 045°16'0 0.2 27.2
2015-Jul-26 17:14N 24°17' W 045°15'0 1.3 27.2
2015-Jul-26 17:09N 24°17' W 045°15'0 0.1 27.2
2015-Jul-26 15:30N 24°17' W 045°15'1 0.8 27.2
2015-Jul-26 14:33N 24°17' W 045°14'0 0.6 27.1
2015-Jul-26 13:47N 24°17' W 045°14'0 0.2 27.0
2015-Jul-26 12:47N 24°16' W 045°14'0 0.1 26.9
2015-Jul-26 12:09N 24°16' W 045°14'0 3.3 26.9
2015-Jul-26 12:06N 24°16' W 045°14'0 4.5 26.9
2015-Jul-26 12:00N 24°16' W 045°13'0 0.0 26.9
2015-Jul-26 11:12N 24°16' W 045°13'0 0.0 26.9
2015-Jul-26 10:20N 24°16' W 045°13'0 0.4 26.9
2015-Jul-26 10:05N 24°16' W 045°13'0 0.6 26.9
2015-Jul-26 09:59N 24°16' W 045°13'1 4.3 26.9
2015-Jul-26 09:51N 24°16' W 045°13'0 0.2 26.9
2015-Jul-26 08:15N 24°16' W 045°13'110.5 26.9
2015-Jul-26 08:09N 24°16' W 045°11'0 0.0 26.9
2015-Jul-26 07:27N 24°16' W 045°11'0 0.0 26.9
2015-Jul-26 06:59N 24°16' W 045°11'0 0.0 26.9
2015-Jul-26 06:36N 24°16' W 045°11'0 0.0 27.0
2015-Jul-26 05:50N 24°16' W 045°11'0 3.3 27.0
2015-Jul-26 05:44N 24°16' W 045°11'0 0.2 27.0
2015-Jul-26 04:08N 24°16' W 045°11'114.0 27.0
2015-Jul-26 04:05N 24°16' W 045°10'0 0.0 27.0
2015-Jul-26 02:05N 24°16' W 045°10'0 0.0 27.1
2015-Jul-26 01:23N 24°16' W 045°10'1 0.4 27.2
2015-Jul-25 22:50N 24°15' W 045°09'0 2.6 27.2
2015-Jul-25 22:39N 24°16' W 045°09'1 0.4 27.2
2015-Jul-25 19:51N 24°15' W 045°08'0 0.0 27.4
2015-Jul-25 18:06N 24°15' W 045°08'2 0.6 27.4
2015-Jul-25 14:09N 24°15' W 045°06'2 0.4 27.2
2015-Jul-25 10:09N 24°16' W 045°04'0 0.2 27.0
2015-Jul-25 09:09N 24°16' W 045°04'1 1.2 27.0
2015-Jul-25 08:26N 24°16' W 045°03'0 0.4 27.0
2015-Jul-25 07:33N 24°17' W 045°03'0 0.6 27.0
2015-Jul-25 07:09N 24°17' W 045°03'0 4.1 27.0
2015-Jul-25 07:06N 24°17' W 045°03'0 0.0 27.0
2015-Jul-25 06:50N 24°17' W 045°03'0 0.3 27.1
2015-Jul-25 06:06N 24°17' W 045°03'0 2.8 27.2
2015-Jul-25 06:00N 24°17' W 045°03'1 9.8 27.2
2015-Jul-25 05:54N 24°18' W 045°04'0 0.0 27.2
2015-Jul-25 04:23N 24°18' W 045°04'0 5.7 27.2
2015-Jul-25 04:20N 24°18' W 045°03'1 0.2 27.2
2015-Jul-25 00:51N 24°17' W 045°04'0 0.2 27.2
2015-Jul-25 00:06N 24°17' W 045°04'0 3.6 27.2
2015-Jul-25 00:00N 24°17' W 045°04'0 0.2 27.2
2015-Jul-24 23:06N 24°17' W 045°04'0 4.4 27.2
2015-Jul-24 23:02N 24°17' W 045°04'0 0.1 27.2
2015-Jul-24 22:06N 24°17' W 045°04'1 0.5 27.3
2015-Jul-24 20:24N 24°16' W 045°03'1 2.2 27.6
2015-Jul-24 20:03N 24°16' W 045°03'0 0.1 27.6
2015-Jul-24 18:18N 24°16' W 045°03'1 0.4 27.6
2015-Jul-24 15:54N 24°16' W 045°02'4 0.2 27.3
2015-Jul-23 20:54N 24°17' W 044°58'0 0.3 27.3
2015-Jul-23 20:12N 24°18' W 044°58'0 0.3 27.3
2015-Jul-23 19:15N 24°17' W 044°58'2 0.6 27.4
2015-Jul-23 16:06N 24°16' W 044°57'0 0.2 27.2
2015-Jul-23 13:57N 24°16' W 044°57'0 0.5 27.1
2015-Jul-23 13:05N 24°15' W 044°56'0 4.0 27.0
2015-Jul-23 13:00N 24°15' W 044°56'2 0.5
2015-Jul-23 08:38N 24°15' W 044°54'0 0.4 26.9
2015-Jul-23 07:54N 24°15' W 044°54'   27.0
Track history (hours):
 
Tides and Currents Weather Stations Pressure Air Temp Water Temp Dewpoint Dewpoint Depression Visibility Wind Speed Wind Dir Waves Ship Positions

Ao Chao Yang 13516

Last reported at 2015-Aug-02 04:35 UTC. Time now 2015-Aug-02 06:17 UTC.
Position N 24°32' W 045°56'.

Length 20 m.

Type: Fishing. MMSI: 412469022.

Water temperature 27.2 ° C

Date/timePositionNaut miles runAvg speedWind from/ knotsBaromVisibWave heightAir tempDewpointWater temp
2015-Aug-02 04:35N 24°32' W 045°56'1 7.3 27.2
2015-Aug-02 04:29N 24°32' W 045°57'2 0.5 27.2
2015-Aug-02 01:26N 24°31' W 045°55'0 5.1 27.3
2015-Aug-02 01:21N 24°31' W 045°55'0 0.4 27.3
2015-Aug-02 00:39N 24°31' W 045°54'0 0.0
2015-Aug-01 23:47N 24°31' W 045°54'0 0.5 27.3
2015-Aug-01 22:59N 24°31' W 045°54'0 0.0 27.3
2015-Aug-01 22:53N 24°31' W 045°54'2 1.8 27.4
2015-Aug-01 21:48N 24°31' W 045°52'1 1.4 27.4
2015-Aug-01 21:09N 24°31' W 045°53'1 1.3 27.4
2015-Aug-01 20:32N 24°31' W 045°52'1 2.6 27.4
2015-Aug-01 20:09N 24°30' W 045°51'0 0.0 27.4
2015-Aug-01 19:29N 24°30' W 045°51'1 1.2 27.4
2015-Aug-01 18:50N 24°31' W 045°51'0 0.0 27.4
2015-Aug-01 18:24N 24°31' W 045°51'0 0.4 27.4
2015-Aug-01 17:45N 24°31' W 045°51'0 3.6 27.4
2015-Aug-01 17:42N 24°31' W 045°51'0 0.0 27.4
2015-Aug-01 16:05N 24°31' W 045°51'1 0.3 27.4
2015-Aug-01 14:09N 24°31' W 045°50'0 0.2 27.2
2015-Aug-01 13:20N 24°31' W 045°50'1 0.1 27.2
2015-Aug-01 09:15N 24°31' W 045°49'0 2.4 27.0
2015-Aug-01 09:12N 24°31' W 045°49'0 0.2 27.0
2015-Aug-01 07:09N 24°31' W 045°49'1 0.2 27.0
2015-Aug-01 01:45N 24°30' W 045°49'0 0.5 27.2
2015-Aug-01 01:00N 24°30' W 045°49'0 3.8 27.2
2015-Aug-01 00:54N 24°29' W 045°49'1 0.4 27.2
2015-Jul-31 21:57N 24°28' W 045°48'0 0.0 27.2
2015-Jul-31 21:45N 24°28' W 045°48'1 1.5 27.2
2015-Jul-31 20:54N 24°28' W 045°46'0 0.5 27.3
2015-Jul-31 20:03N 24°28' W 045°47'0 2.4 27.3
2015-Jul-31 19:57N 24°28' W 045°47'0 0.0 27.3
2015-Jul-31 19:17N 24°28' W 045°47'1 0.6 27.3
2015-Jul-31 17:54N 24°28' W 045°46'1 0.4 27.3
2015-Jul-31 16:09N 24°27' W 045°45'1 0.2 27.3
2015-Jul-31 12:05N 24°27' W 045°44'0 5.1 27.1
2015-Jul-31 12:00N 24°27' W 045°45'111.0 27.1
2015-Jul-31 11:57N 24°28' W 045°44'0 0.0 27.1
2015-Jul-31 11:09N 24°28' W 045°44'0 0.2 27.1
2015-Jul-31 09:24N 24°27' W 045°44'0 0.7 27.1
2015-Jul-31 09:00N 24°27' W 045°44'0 1.7 27.1
2015-Jul-31 08:53N 24°27' W 045°44'0 0.2 27.1
2015-Jul-31 07:57N 24°27' W 045°43'0 0.6 27.1
2015-Jul-31 07:14N 24°27' W 045°43'1 0.1 27.2
2015-Jul-31 02:03N 24°26' W 045°43'1 0.2 27.2
2015-Jul-30 22:45N 24°26' W 045°43'2 0.5 27.3
2015-Jul-30 18:08N 24°24' W 045°41'1 0.4 27.4
2015-Jul-30 14:48N 24°24' W 045°39'0 0.0 27.3
2015-Jul-30 14:08N 24°24' W 045°39'0 0.0 27.2
2015-Jul-30 14:05N 24°24' W 045°39'1 0.4 27.2
2015-Jul-30 12:17N 24°23' W 045°39'1 0.3 27.1
2015-Jul-30 10:08N 24°24' W 045°38'0 0.3 27.1
2015-Jul-30 09:09N 24°23' W 045°38'0 4.4 27.0
2015-Jul-30 09:06N 24°23' W 045°38'1 0.2 27.0
2015-Jul-30 05:05N 24°23' W 045°37'1 7.0 27.2
2015-Jul-30 04:59N 24°22' W 045°37'0 0.0 27.2
2015-Jul-30 00:47N 24°22' W 045°37'0 0.1 27.2
2015-Jul-29 23:59N 24°22' W 045°37'0 3.0 27.3
2015-Jul-29 23:53N 24°22' W 045°36'0 0.3 27.3
2015-Jul-29 23:03N 24°22' W 045°36'1 0.3 27.3
2015-Jul-29 20:02N 24°21' W 045°35'1 0.6 27.4
2015-Jul-29 19:05N 24°21' W 045°35'3 0.2 27.5
2015-Jul-29 07:09N 24°20' W 045°32'0 0.0 27.0
2015-Jul-29 07:06N 24°20' W 045°32'0 0.0 27.0
2015-Jul-29 07:00N 24°20' W 045°32'0 0.0 27.0
2015-Jul-29 05:17N 24°20' W 045°32'1 0.4 27.0
2015-Jul-29 01:54N 24°19' W 045°31'1 1.4 27.1
2015-Jul-29 01:03N 24°19' W 045°30'0 0.1 27.2
2015-Jul-28 20:54N 24°19' W 045°30'1 0.6 27.4
2015-Jul-28 19:51N 24°19' W 045°30'3 0.6 27.5
2015-Jul-28 15:06N 24°16' W 045°27'0 0.0 27.3
2015-Jul-28 13:54N 24°16' W 045°27'1 0.4 27.1
2015-Jul-28 12:09N 24°17' W 045°27'0 6.0 26.9
2015-Jul-28 12:05N 24°17' W 045°26'1 0.4 26.9
2015-Jul-28 09:15N 24°17' W 045°25'0 0.4 26.9
2015-Jul-28 07:54N 24°17' W 045°25'0 4.9 27.0
2015-Jul-28 07:50N 24°17' W 045°24'0 0.6 27.0
2015-Jul-28 07:09N 24°18' W 045°24'2 0.3 27.0
2015-Jul-28 00:44N 24°18' W 045°23'0 0.2 27.2
2015-Jul-27 23:50N 24°18' W 045°23'0 0.0 27.2
2015-Jul-27 23:47N 24°18' W 045°23'0 0.4 27.2
2015-Jul-27 23:02N 24°18' W 045°22'0 1.2 27.2
2015-Jul-27 22:54N 24°18' W 045°22'0 0.1 27.2
2015-Jul-27 21:06N 24°18' W 045°22'0 0.4 27.3
2015-Jul-27 20:54N 24°18' W 045°22'1 0.2 27.3
2015-Jul-27 17:02N 24°18' W 045°21'1 0.3 27.3
2015-Jul-27 11:48N 24°17' W 045°20'2 0.5 26.9
2015-Jul-27 07:59N 24°18' W 045°18'1 0.3 26.9
2015-Jul-27 03:59N 24°17' W 045°17'0 0.0 26.9
2015-Jul-27 01:45N 24°17' W 045°17'0 0.4 27.0
2015-Jul-27 00:59N 24°17' W 045°17'0 0.0 27.0
2015-Jul-27 00:09N 24°17' W 045°17'0 0.6 27.0
2015-Jul-26 23:23N 24°17' W 045°16'0 0.5 27.0
2015-Jul-26 22:26N 24°17' W 045°16'0 0.0 27.1
2015-Jul-26 21:20N 24°17' W 045°16'0 5.4 27.2
2015-Jul-26 21:18N 24°17' W 045°16'0 0.0 27.2
2015-Jul-26 21:03N 24°17' W 045°16'0 0.4 27.2
2015-Jul-26 20:50N 24°17' W 045°16'1 0.5
2015-Jul-26 19:39N 24°17' W 045°15'0 0.2 27.2
2015-Jul-26 18:48N 24°17' W 045°16'0 0.2 27.2
2015-Jul-26 17:14N 24°17' W 045°15'0 1.3 27.2
2015-Jul-26 17:09N 24°17' W 045°15'0 0.1 27.2
2015-Jul-26 15:30N 24°17' W 045°15'1 0.8 27.2
2015-Jul-26 14:33N 24°17' W 045°14'0 0.6 27.1
2015-Jul-26 13:47N 24°17' W 045°14'0 0.2 27.0
2015-Jul-26 12:47N 24°16' W 045°14'0 0.1 26.9
2015-Jul-26 12:09N 24°16' W 045°14'0 3.3 26.9
2015-Jul-26 12:06N 24°16' W 045°14'0 4.5 26.9
2015-Jul-26 12:00N 24°16' W 045°13'0 0.0 26.9
2015-Jul-26 11:12N 24°16' W 045°13'0 0.0 26.9
2015-Jul-26 10:20N 24°16' W 045°13'0 0.4 26.9
2015-Jul-26 10:05N 24°16' W 045°13'0 0.6 26.9
2015-Jul-26 09:59N 24°16' W 045°13'1 4.3 26.9
2015-Jul-26 09:51N 24°16' W 045°13'0 0.2 26.9
2015-Jul-26 08:15N 24°16' W 045°13'110.5 26.9
2015-Jul-26 08:09N 24°16' W 045°11'0 0.0 26.9
2015-Jul-26 07:27N 24°16' W 045°11'0 0.0 26.9
2015-Jul-26 06:59N 24°16' W 045°11'0 0.0 26.9
2015-Jul-26 06:36N 24°16' W 045°11'0 0.0 27.0
2015-Jul-26 05:50N 24°16' W 045°11'0 3.3 27.0
2015-Jul-26 05:44N 24°16' W 045°11'0 0.2 27.0
2015-Jul-26 04:08N 24°16' W 045°11'114.0 27.0
2015-Jul-26 04:05N 24°16' W 045°10'0 0.0 27.0
2015-Jul-26 02:05N 24°16' W 045°10'0 0.0 27.1
2015-Jul-26 01:23N 24°16' W 045°10'1 0.4 27.2
2015-Jul-25 22:50N 24°15' W 045°09'0 2.6 27.2
2015-Jul-25 22:39N 24°16' W 045°09'1 0.4 27.2
2015-Jul-25 19:51N 24°15' W 045°08'0 0.0 27.4
2015-Jul-25 18:06N 24°15' W 045°08'2 0.6 27.4
2015-Jul-25 14:09N 24°15' W 045°06'2 0.4 27.2
2015-Jul-25 10:09N 24°16' W 045°04'0 0.2 27.0
2015-Jul-25 09:09N 24°16' W 045°04'1 1.2 27.0
2015-Jul-25 08:26N 24°16' W 045°03'0 0.4 27.0
2015-Jul-25 07:33N 24°17' W 045°03'0 0.6 27.0
2015-Jul-25 07:09N 24°17' W 045°03'0 4.1 27.0
2015-Jul-25 07:06N 24°17' W 045°03'0 0.0 27.0
2015-Jul-25 06:50N 24°17' W 045°03'0 0.3 27.1
2015-Jul-25 06:06N 24°17' W 045°03'0 2.8 27.2
2015-Jul-25 06:00N 24°17' W 045°03'1 9.8 27.2
2015-Jul-25 05:54N 24°18' W 045°04'0 0.0 27.2
2015-Jul-25 04:23N 24°18' W 045°04'0 5.7 27.2
2015-Jul-25 04:20N 24°18' W 045°03'1 0.2 27.2
2015-Jul-25 00:51N 24°17' W 045°04'0 0.2 27.2
2015-Jul-25 00:06N 24°17' W 045°04'0 3.6 27.2
2015-Jul-25 00:00N 24°17' W 045°04'0 0.2 27.2
2015-Jul-24 23:06N 24°17' W 045°04'0 4.4 27.2
2015-Jul-24 23:02N 24°17' W 045°04'0 0.1 27.2
2015-Jul-24 22:06N 24°17' W 045°04'1 0.5 27.3
2015-Jul-24 20:24N 24°16' W 045°03'1 2.2 27.6
2015-Jul-24 20:03N 24°16' W 045°03'0 0.1 27.6
2015-Jul-24 18:18N 24°16' W 045°03'1 0.4 27.6
2015-Jul-24 15:54N 24°16' W 045°02'4 0.2 27.3
2015-Jul-23 20:54N 24°17' W 044°58'0 0.3 27.3
2015-Jul-23 20:12N 24°18' W 044°58'0 0.3 27.3
2015-Jul-23 19:15N 24°17' W 044°58'2 0.6 27.4
2015-Jul-23 16:06N 24°16' W 044°57'0 0.2 27.2
2015-Jul-23 13:57N 24°16' W 044°57'0 0.5 27.1
2015-Jul-23 13:05N 24°15' W 044°56'0 4.0 27.0
2015-Jul-23 13:00N 24°15' W 044°56'2 0.5
2015-Jul-23 08:38N 24°15' W 044°54'0 0.4 26.9
2015-Jul-23 07:54N 24°15' W 044°54'   27.0

Dump ship's entire track history